sensor_id;sensor_type;location;lat;lon;timestamp;temperature;humidity
76857;DHT22;69705;44.686;37.628;2024-02-26T00:00:07;2.67;84.10
76857;DHT22;69705;44.686;37.628;2024-02-26T00:02:37;2.66;84.15
76857;DHT22;69705;44.686;37.628;2024-02-26T00:05:08;2.57;84.31
76857;DHT22;69705;44.686;37.628;2024-02-26T00:07:34;2.55;84.64
76857;DHT22;69705;44.686;37.628;2024-02-26T00:10:01;2.53;84.65
76857;DHT22;69705;44.686;37.628;2024-02-26T00:12:28;2.49;84.97
76857;DHT22;69705;44.686;37.628;2024-02-26T00:14:54;2.47;84.93
76857;DHT22;69705;44.686;37.628;2024-02-26T00:17:24;2.47;84.84
76857;DHT22;69705;44.686;37.628;2024-02-26T00:19:51;2.49;84.81
76857;DHT22;69705;44.686;37.628;2024-02-26T00:22:17;2.57;84.34
76857;DHT22;69705;44.686;37.628;2024-02-26T00:24:44;2.56;84.17
76857;DHT22;69705;44.686;37.628;2024-02-26T00:27:10;2.59;84.11
76857;DHT22;69705;44.686;37.628;2024-02-26T00:29:37;2.59;83.98
76857;DHT22;69705;44.686;37.628;2024-02-26T00:32:04;2.61;83.94
76857;DHT22;69705;44.686;37.628;2024-02-26T00:34:31;2.64;83.81
76857;DHT22;69705;44.686;37.628;2024-02-26T00:36:57;2.61;83.60
76857;DHT22;69705;44.686;37.628;2024-02-26T00:39:24;2.58;83.62
76857;DHT22;69705;44.686;37.628;2024-02-26T00:41:50;2.47;83.94
76857;DHT22;69705;44.686;37.628;2024-02-26T00:44:18;2.37;84.59
76857;DHT22;69705;44.686;37.628;2024-02-26T00:46:44;2.43;84.52
76857;DHT22;69705;44.686;37.628;2024-02-26T00:49:12;2.47;84.32
76857;DHT22;69705;44.686;37.628;2024-02-26T00:51:38;2.42;84.44
76857;DHT22;69705;44.686;37.628;2024-02-26T00:54:05;2.42;84.28
76857;DHT22;69705;44.686;37.628;2024-02-26T00:56:31;2.41;84.48
76857;DHT22;69705;44.686;37.628;2024-02-26T00:58:58;2.32;84.61
76857;DHT22;69705;44.686;37.628;2024-02-26T01:01:25;2.34;84.28
76857;DHT22;69705;44.686;37.628;2024-02-26T01:03:52;2.26;84.58
76857;DHT22;69705;44.686;37.628;2024-02-26T01:06:18;2.26;85.03
76857;DHT22;69705;44.686;37.628;2024-02-26T01:08:45;2.29;84.40
76857;DHT22;69705;44.686;37.628;2024-02-26T01:11:12;2.27;84.74
76857;DHT22;69705;44.686;37.628;2024-02-26T01:13:38;2.26;84.70
76857;DHT22;69705;44.686;37.628;2024-02-26T01:16:05;2.30;84.45
76857;DHT22;69705;44.686;37.628;2024-02-26T01:18:32;2.28;84.72
76857;DHT22;69705;44.686;37.628;2024-02-26T01:20:58;2.36;84.57
76857;DHT22;69705;44.686;37.628;2024-02-26T01:23:25;2.38;84.03
76857;DHT22;69705;44.686;37.628;2024-02-26T01:25:51;2.40;83.89
76857;DHT22;69705;44.686;37.628;2024-02-26T01:28:18;2.38;83.94
76857;DHT22;69705;44.686;37.628;2024-02-26T01:30:45;2.36;83.74
76857;DHT22;69705;44.686;37.628;2024-02-26T01:33:11;2.32;83.85
76857;DHT22;69705;44.686;37.628;2024-02-26T01:35:38;2.31;83.97
76857;DHT22;69705;44.686;37.628;2024-02-26T01:38:05;2.25;84.10
76857;DHT22;69705;44.686;37.628;2024-02-26T01:40:32;2.27;83.98
76857;DHT22;69705;44.686;37.628;2024-02-26T01:42:59;2.32;83.61
76857;DHT22;69705;44.686;37.628;2024-02-26T01:45:26;2.35;83.45
76857;DHT22;69705;44.686;37.628;2024-02-26T01:47:55;2.34;83.45
76857;DHT22;69705;44.686;37.628;2024-02-26T01:50:23;2.28;83.76
76857;DHT22;69705;44.686;37.628;2024-02-26T01:52:50;2.30;83.49
76857;DHT22;69705;44.686;37.628;2024-02-26T01:55:18;2.35;83.24
76857;DHT22;69705;44.686;37.628;2024-02-26T01:57:46;2.38;82.84
76857;DHT22;69705;44.686;37.628;2024-02-26T02:00:14;2.43;82.75
76857;DHT22;69705;44.686;37.628;2024-02-26T02:02:42;2.46;82.41
76857;DHT22;69705;44.686;37.628;2024-02-26T02:05:12;2.51;82.35
76857;DHT22;69705;44.686;37.628;2024-02-26T02:07:39;2.51;82.14
76857;DHT22;69705;44.686;37.628;2024-02-26T02:10:07;2.46;82.46
76857;DHT22;69705;44.686;37.628;2024-02-26T02:12:34;2.46;82.34
76857;DHT22;69705;44.686;37.628;2024-02-26T02:15:02;2.36;82.57
76857;DHT22;69705;44.686;37.628;2024-02-26T02:17:30;2.43;82.12
76857;DHT22;69705;44.686;37.628;2024-02-26T02:19:56;2.49;81.74
76857;DHT22;69705;44.686;37.628;2024-02-26T02:22:23;2.52;81.56
76857;DHT22;69705;44.686;37.628;2024-02-26T02:24:52;2.56;81.32
76857;DHT22;69705;44.686;37.628;2024-02-26T02:27:20;2.58;80.98
76857;DHT22;69705;44.686;37.628;2024-02-26T02:29:48;2.52;81.23
76857;DHT22;69705;44.686;37.628;2024-02-26T02:32:16;2.26;82.23
76857;DHT22;69705;44.686;37.628;2024-02-26T02:34:43;2.12;83.05
76857;DHT22;69705;44.686;37.628;2024-02-26T02:37:10;2.02;83.64
76857;DHT22;69705;44.686;37.628;2024-02-26T02:39:37;2.03;83.33
76857;DHT22;69705;44.686;37.628;2024-02-26T02:42:04;2.02;83.05
76857;DHT22;69705;44.686;37.628;2024-02-26T02:44:31;2.05;83.61
76857;DHT22;69705;44.686;37.628;2024-02-26T02:46:58;2.01;83.45
76857;DHT22;69705;44.686;37.628;2024-02-26T02:49:25;1.86;84.02
76857;DHT22;69705;44.686;37.628;2024-02-26T02:51:52;1.80;84.24
76857;DHT22;69705;44.686;37.628;2024-02-26T02:54:20;1.75;84.52
76857;DHT22;69705;44.686;37.628;2024-02-26T02:56:47;1.77;84.02
76857;DHT22;69705;44.686;37.628;2024-02-26T02:59:14;1.80;84.54
76857;DHT22;69705;44.686;37.628;2024-02-26T03:01:41;1.77;83.84
76857;DHT22;69705;44.686;37.628;2024-02-26T03:04:08;1.76;84.39
76857;DHT22;69705;44.686;37.628;2024-02-26T03:06:35;1.71;84.32
76857;DHT22;69705;44.686;37.628;2024-02-26T03:09:02;1.67;84.29
76857;DHT22;69705;44.686;37.628;2024-02-26T03:11:29;1.66;84.37
76857;DHT22;69705;44.686;37.628;2024-02-26T03:13:56;1.71;83.79
76857;DHT22;69705;44.686;37.628;2024-02-26T03:16:23;1.82;83.71
76857;DHT22;69705;44.686;37.628;2024-02-26T03:18:50;1.83;83.24
76857;DHT22;69705;44.686;37.628;2024-02-26T03:21:17;1.79;83.36
76857;DHT22;69705;44.686;37.628;2024-02-26T03:23:44;1.73;83.52
76857;DHT22;69705;44.686;37.628;2024-02-26T03:26:11;1.67;83.98
76857;DHT22;69705;44.686;37.628;2024-02-26T03:28:41;1.62;83.94
76857;DHT22;69705;44.686;37.628;2024-02-26T03:31:08;1.55;84.27
76857;DHT22;69705;44.686;37.628;2024-02-26T03:33:35;1.42;84.61
76857;DHT22;69705;44.686;37.628;2024-02-26T03:36:02;1.45;84.82
76857;DHT22;69705;44.686;37.628;2024-02-26T03:38:29;1.43;84.85
76857;DHT22;69705;44.686;37.628;2024-02-26T03:40:56;1.42;85.06
76857;DHT22;69705;44.686;37.628;2024-02-26T03:43:23;1.40;85.14
76857;DHT22;69705;44.686;37.628;2024-02-26T03:45:50;1.36;85.29
76857;DHT22;69705;44.686;37.628;2024-02-26T03:48:17;1.29;85.42
76857;DHT22;69705;44.686;37.628;2024-02-26T03:50:45;1.31;85.40
76857;DHT22;69705;44.686;37.628;2024-02-26T03:53:12;1.36;85.25
76857;DHT22;69705;44.686;37.628;2024-02-26T03:55:39;1.36;84.93
76857;DHT22;69705;44.686;37.628;2024-02-26T03:58:08;1.38;84.71
76857;DHT22;69705;44.686;37.628;2024-02-26T04:00:37;1.40;84.69
76857;DHT22;69705;44.686;37.628;2024-02-26T04:03:04;1.37;84.86
76857;DHT22;69705;44.686;37.628;2024-02-26T04:05:31;1.34;84.63
76857;DHT22;69705;44.686;37.628;2024-02-26T04:07:57;1.36;84.60
76857;DHT22;69705;44.686;37.628;2024-02-26T04:10:24;1.32;84.81
76857;DHT22;69705;44.686;37.628;2024-02-26T04:12:51;1.34;84.90
76857;DHT22;69705;44.686;37.628;2024-02-26T04:15:18;1.51;83.89
76857;DHT22;69705;44.686;37.628;2024-02-26T04:17:46;1.54;84.38
76857;DHT22;69705;44.686;37.628;2024-02-26T04:20:14;1.53;83.73
76857;DHT22;69705;44.686;37.628;2024-02-26T04:22:45;1.61;83.55
76857;DHT22;69705;44.686;37.628;2024-02-26T04:25:12;1.56;83.58
76857;DHT22;69705;44.686;37.628;2024-02-26T04:27:39;1.67;82.86
76857;DHT22;69705;44.686;37.628;2024-02-26T04:30:07;1.86;81.90
76857;DHT22;69705;44.686;37.628;2024-02-26T04:32:34;1.94;81.81
76857;DHT22;69705;44.686;37.628;2024-02-26T04:35:05;1.93;81.94
76857;DHT22;69705;44.686;37.628;2024-02-26T04:37:32;1.86;82.54
76857;DHT22;69705;44.686;37.628;2024-02-26T04:39:59;1.90;82.12
76857;DHT22;69705;44.686;37.628;2024-02-26T04:42:27;1.99;81.47
76857;DHT22;69705;44.686;37.628;2024-02-26T04:44:55;2.09;81.14
76857;DHT22;69705;44.686;37.628;2024-02-26T04:47:22;2.19;80.69
76857;DHT22;69705;44.686;37.628;2024-02-26T04:49:50;2.20;81.27
76857;DHT22;69705;44.686;37.628;2024-02-26T04:52:18;2.19;81.07
76857;DHT22;69705;44.686;37.628;2024-02-26T04:54:48;2.16;81.52
76857;DHT22;69705;44.686;37.628;2024-02-26T04:57:15;2.28;81.46
76857;DHT22;69705;44.686;37.628;2024-02-26T04:59:44;2.52;80.44
76857;DHT22;69705;44.686;37.628;2024-02-26T05:02:12;2.71;80.33
76857;DHT22;69705;44.686;37.628;2024-02-26T05:04:39;2.95;80.17
76857;DHT22;69705;44.686;37.628;2024-02-26T05:07:06;3.09;79.56
76857;DHT22;69705;44.686;37.628;2024-02-26T05:09:34;3.25;78.14
76857;DHT22;69705;44.686;37.628;2024-02-26T05:12:01;3.42;77.79
76857;DHT22;69705;44.686;37.628;2024-02-26T05:14:28;3.57;77.50
76857;DHT22;69705;44.686;37.628;2024-02-26T05:16:55;3.74;77.09
76857;DHT22;69705;44.686;37.628;2024-02-26T05:19:22;3.87;75.70
76857;DHT22;69705;44.686;37.628;2024-02-26T05:21:49;3.95;76.31
76857;DHT22;69705;44.686;37.628;2024-02-26T05:24:17;4.10;76.02
76857;DHT22;69705;44.686;37.628;2024-02-26T05:26:45;4.29;75.52
76857;DHT22;69705;44.686;37.628;2024-02-26T05:29:12;4.49;74.60
76857;DHT22;69705;44.686;37.628;2024-02-26T05:31:39;4.69;74.75
76857;DHT22;69705;44.686;37.628;2024-02-26T05:34:06;4.87;73.05
76857;DHT22;69705;44.686;37.628;2024-02-26T05:36:33;5.01;72.39
76857;DHT22;69705;44.686;37.628;2024-02-26T05:39:01;5.21;72.34
76857;DHT22;69705;44.686;37.628;2024-02-26T05:41:27;5.40;72.07
76857;DHT22;69705;44.686;37.628;2024-02-26T05:43:55;5.64;71.10
76857;DHT22;69705;44.686;37.628;2024-02-26T05:46:22;5.91;71.00
76857;DHT22;69705;44.686;37.628;2024-02-26T05:48:51;6.17;71.25
76857;DHT22;69705;44.686;37.628;2024-02-26T05:51:18;6.48;69.81
76857;DHT22;69705;44.686;37.628;2024-02-26T05:53:46;6.79;66.69
76857;DHT22;69705;44.686;37.628;2024-02-26T05:56:21;7.11;66.33
76857;DHT22;69705;44.686;37.628;2024-02-26T05:58:49;7.37;64.99
76857;DHT22;69705;44.686;37.628;2024-02-26T06:01:16;7.60;64.29
76857;DHT22;69705;44.686;37.628;2024-02-26T06:03:44;7.91;63.13
76857;DHT22;69705;44.686;37.628;2024-02-26T06:06:11;8.17;61.63
76857;DHT22;69705;44.686;37.628;2024-02-26T06:08:38;8.46;61.34
76857;DHT22;69705;44.686;37.628;2024-02-26T06:11:08;8.77;59.88
76857;DHT22;69705;44.686;37.628;2024-02-26T06:13:35;9.02;59.41
76857;DHT22;69705;44.686;37.628;2024-02-26T06:16:02;9.22;58.02
76857;DHT22;69705;44.686;37.628;2024-02-26T06:18:30;9.45;56.87
76857;DHT22;69705;44.686;37.628;2024-02-26T06:20:57;9.65;56.42
76857;DHT22;69705;44.686;37.628;2024-02-26T06:23:24;9.82;55.92
76857;DHT22;69705;44.686;37.628;2024-02-26T06:25:51;10.03;54.84
76857;DHT22;69705;44.686;37.628;2024-02-26T06:28:19;10.24;54.77
76857;DHT22;69705;44.686;37.628;2024-02-26T06:30:46;10.42;52.71
76857;DHT22;69705;44.686;37.628;2024-02-26T06:33:13;10.59;53.52
76857;DHT22;69705;44.686;37.628;2024-02-26T06:35:40;10.75;50.50
76857;DHT22;69705;44.686;37.628;2024-02-26T06:38:08;10.89;51.30
76857;DHT22;69705;44.686;37.628;2024-02-26T06:40:35;11.05;51.14
76857;DHT22;69705;44.686;37.628;2024-02-26T06:43:03;11.17;49.18
76857;DHT22;69705;44.686;37.628;2024-02-26T06:45:30;11.31;49.65
76857;DHT22;69705;44.686;37.628;2024-02-26T06:47:57;11.45;47.88
76857;DHT22;69705;44.686;37.628;2024-02-26T06:50:24;11.59;47.91
76857;DHT22;69705;44.686;37.628;2024-02-26T06:52:51;11.71;48.17
76857;DHT22;69705;44.686;37.628;2024-02-26T06:55:18;11.81;47.54
76857;DHT22;69705;44.686;37.628;2024-02-26T06:57:45;11.90;46.47
76857;DHT22;69705;44.686;37.628;2024-02-26T07:00:13;12.12;47.07
76857;DHT22;69705;44.686;37.628;2024-02-26T07:02:43;12.46;55.04
76857;DHT22;69705;44.686;37.628;2024-02-26T07:05:10;12.66;50.19
76857;DHT22;69705;44.686;37.628;2024-02-26T07:07:37;12.72;49.00
76857;DHT22;69705;44.686;37.628;2024-02-26T07:10:05;13.04;45.17
76857;DHT22;69705;44.686;37.628;2024-02-26T07:12:32;13.06;49.06
76857;DHT22;69705;44.686;37.628;2024-02-26T07:15:02;13.16;42.96
76857;DHT22;69705;44.686;37.628;2024-02-26T07:17:29;13.26;43.21
76857;DHT22;69705;44.686;37.628;2024-02-26T07:19:56;13.38;42.36
76857;DHT22;69705;44.686;37.628;2024-02-26T07:22:23;13.52;42.45
76857;DHT22;69705;44.686;37.628;2024-02-26T07:24:50;13.67;42.11
76857;DHT22;69705;44.686;37.628;2024-02-26T07:27:21;13.80;40.57
76857;DHT22;69705;44.686;37.628;2024-02-26T07:29:48;13.97;42.25
76857;DHT22;69705;44.686;37.628;2024-02-26T07:32:14;14.10;40.34
76857;DHT22;69705;44.686;37.628;2024-02-26T07:34:42;14.23;41.52
76857;DHT22;69705;44.686;37.628;2024-02-26T07:37:11;14.36;41.10
76857;DHT22;69705;44.686;37.628;2024-02-26T07:39:38;14.50;40.53
76857;DHT22;69705;44.686;37.628;2024-02-26T07:42:05;14.59;39.02
76857;DHT22;69705;44.686;37.628;2024-02-26T07:44:33;14.72;39.68
76857;DHT22;69705;44.686;37.628;2024-02-26T07:47:00;14.82;39.02
76857;DHT22;69705;44.686;37.628;2024-02-26T07:49:27;14.93;38.22
76857;DHT22;69705;44.686;37.628;2024-02-26T07:51:54;15.02;38.07
76857;DHT22;69705;44.686;37.628;2024-02-26T07:54:21;15.10;35.85
76857;DHT22;69705;44.686;37.628;2024-02-26T07:56:48;15.23;37.33
76857;DHT22;69705;44.686;37.628;2024-02-26T07:59:15;15.37;36.43
76857;DHT22;69705;44.686;37.628;2024-02-26T08:01:42;15.53;37.21
76857;DHT22;69705;44.686;37.628;2024-02-26T08:04:09;15.59;33.66
76857;DHT22;69705;44.686;37.628;2024-02-26T08:06:36;15.67;33.86
76857;DHT22;69705;44.686;37.628;2024-02-26T08:09:03;15.78;34.16
76857;DHT22;69705;44.686;37.628;2024-02-26T08:11:30;15.97;34.17
76857;DHT22;69705;44.686;37.628;2024-02-26T08:13:57;16.02;33.21
76857;DHT22;69705;44.686;37.628;2024-02-26T08:16:25;16.13;31.67
76857;DHT22;69705;44.686;37.628;2024-02-26T08:18:53;16.21;32.32
76857;DHT22;69705;44.686;37.628;2024-02-26T08:21:19;16.39;33.60
76857;DHT22;69705;44.686;37.628;2024-02-26T08:23:46;16.46;30.77
76857;DHT22;69705;44.686;37.628;2024-02-26T08:26:13;16.61;32.41
76857;DHT22;69705;44.686;37.628;2024-02-26T08:28:40;16.78;31.70
76857;DHT22;69705;44.686;37.628;2024-02-26T08:31:07;16.99;31.77
76857;DHT22;69705;44.686;37.628;2024-02-26T08:33:34;17.11;29.84
76857;DHT22;69705;44.686;37.628;2024-02-26T08:36:05;17.26;30.52
76857;DHT22;69705;44.686;37.628;2024-02-26T08:38:32;17.52;31.21
76857;DHT22;69705;44.686;37.628;2024-02-26T08:41:01;17.54;28.95
76857;DHT22;69705;44.686;37.628;2024-02-26T08:43:29;17.55;28.42
76857;DHT22;69705;44.686;37.628;2024-02-26T08:45:57;17.68;29.93
76857;DHT22;69705;44.686;37.628;2024-02-26T08:48:24;17.82;32.66
76857;DHT22;69705;44.686;37.628;2024-02-26T08:50:51;17.96;28.94
76857;DHT22;69705;44.686;37.628;2024-02-26T08:53:18;18.05;27.31
76857;DHT22;69705;44.686;37.628;2024-02-26T08:55:45;18.13;29.25
76857;DHT22;69705;44.686;37.628;2024-02-26T08:58:12;18.23;25.27
76857;DHT22;69705;44.686;37.628;2024-02-26T09:00:39;18.44;27.20
76857;DHT22;69705;44.686;37.628;2024-02-26T09:03:06;18.61;26.30
76857;DHT22;69705;44.686;37.628;2024-02-26T09:05:33;18.81;28.23
76857;DHT22;69705;44.686;37.628;2024-02-26T09:08:00;19.06;25.14
76857;DHT22;69705;44.686;37.628;2024-02-26T09:10:27;19.37;25.06
76857;DHT22;69705;44.686;37.628;2024-02-26T09:12:54;19.66;24.65
76857;DHT22;69705;44.686;37.628;2024-02-26T09:15:21;19.92;21.18
76857;DHT22;69705;44.686;37.628;2024-02-26T09:17:48;19.84;22.09
76857;DHT22;69705;44.686;37.628;2024-02-26T09:20:16;19.97;22.02
76857;DHT22;69705;44.686;37.628;2024-02-26T09:22:46;20.10;21.46
76857;DHT22;69705;44.686;37.628;2024-02-26T09:25:13;20.14;22.91
76857;DHT22;69705;44.686;37.628;2024-02-26T09:27:43;20.41;21.49
76857;DHT22;69705;44.686;37.628;2024-02-26T09:30:11;20.69;22.25
76857;DHT22;69705;44.686;37.628;2024-02-26T09:32:39;20.81;21.20
76857;DHT22;69705;44.686;37.628;2024-02-26T09:35:06;20.88;20.63
76857;DHT22;69705;44.686;37.628;2024-02-26T09:37:34;20.83;22.82
76857;DHT22;69705;44.686;37.628;2024-02-26T09:40:04;20.94;22.08
76857;DHT22;69705;44.686;37.628;2024-02-26T09:42:33;21.05;21.58
76857;DHT22;69705;44.686;37.628;2024-02-26T09:45:05;21.21;19.14
76857;DHT22;69705;44.686;37.628;2024-02-26T09:47:36;21.31;19.67
76857;DHT22;69705;44.686;37.628;2024-02-26T09:50:06;21.42;19.31
76857;DHT22;69705;44.686;37.628;2024-02-26T09:52:37;21.69;20.62
76857;DHT22;69705;44.686;37.628;2024-02-26T09:55:05;21.70;19.94
76857;DHT22;69705;44.686;37.628;2024-02-26T09:57:33;21.75;19.97
76857;DHT22;69705;44.686;37.628;2024-02-26T10:00:03;21.84;19.57
76857;DHT22;69705;44.686;37.628;2024-02-26T10:02:36;21.99;18.39
76857;DHT22;69705;44.686;37.628;2024-02-26T10:05:04;21.66;18.78
76857;DHT22;69705;44.686;37.628;2024-02-26T10:07:34;21.85;18.46
76857;DHT22;69705;44.686;37.628;2024-02-26T10:10:03;22.07;18.89
76857;DHT22;69705;44.686;37.628;2024-02-26T10:12:30;22.08;19.43
76857;DHT22;69705;44.686;37.628;2024-02-26T10:14:59;22.06;20.28
76857;DHT22;69705;44.686;37.628;2024-02-26T10:17:26;22.27;20.20
76857;DHT22;69705;44.686;37.628;2024-02-26T10:19:54;22.33;22.41
76857;DHT22;69705;44.686;37.628;2024-02-26T10:22:23;22.40;28.20
76857;DHT22;69705;44.686;37.628;2024-02-26T10:24:49;22.19;30.29
76857;DHT22;69705;44.686;37.628;2024-02-26T10:27:16;21.57;35.31
76857;DHT22;69705;44.686;37.628;2024-02-26T10:29:45;21.69;33.76
76857;DHT22;69705;44.686;37.628;2024-02-26T10:32:15;22.04;31.92
76857;DHT22;69705;44.686;37.628;2024-02-26T10:34:45;22.16;32.67
76857;DHT22;69705;44.686;37.628;2024-02-26T10:37:16;22.07;34.28
76857;DHT22;69705;44.686;37.628;2024-02-26T10:39:49;21.93;35.65
76857;DHT22;69705;44.686;37.628;2024-02-26T10:42:19;21.92;35.30
76857;DHT22;69705;44.686;37.628;2024-02-26T10:44:47;22.01;34.75
76857;DHT22;69705;44.686;37.628;2024-02-26T10:47:17;22.05;34.67
76857;DHT22;69705;44.686;37.628;2024-02-26T10:49:47;21.91;34.99
76857;DHT22;69705;44.686;37.628;2024-02-26T10:52:19;21.66;35.47
76857;DHT22;69705;44.686;37.628;2024-02-26T10:54:50;21.99;35.94
76857;DHT22;69705;44.686;37.628;2024-02-26T10:57:22;22.07;35.66
76857;DHT22;69705;44.686;37.628;2024-02-26T10:59:53;22.24;34.75
76857;DHT22;69705;44.686;37.628;2024-02-26T11:02:24;22.10;35.05
76857;DHT22;69705;44.686;37.628;2024-02-26T11:04:53;22.08;34.01
76857;DHT22;69705;44.686;37.628;2024-02-26T11:07:22;22.01;34.86
76857;DHT22;69705;44.686;37.628;2024-02-26T11:09:51;21.97;35.15
76857;DHT22;69705;44.686;37.628;2024-02-26T11:12:21;21.95;34.95
76857;DHT22;69705;44.686;37.628;2024-02-26T11:14:51;22.18;35.02
76857;DHT22;69705;44.686;37.628;2024-02-26T11:17:25;22.24;35.06
76857;DHT22;69705;44.686;37.628;2024-02-26T11:19:56;22.11;35.65
76857;DHT22;69705;44.686;37.628;2024-02-26T11:22:26;22.09;34.55
76857;DHT22;69705;44.686;37.628;2024-02-26T11:24:56;21.85;35.53
76857;DHT22;69705;44.686;37.628;2024-02-26T11:27:38;21.81;36.12
76857;DHT22;69705;44.686;37.628;2024-02-26T11:30:12;21.94;36.95
76857;DHT22;69705;44.686;37.628;2024-02-26T11:32:47;22.03;35.10
76857;DHT22;69705;44.686;37.628;2024-02-26T11:35:16;21.78;36.84
76857;DHT22;69705;44.686;37.628;2024-02-26T11:37:57;21.85;35.72
76857;DHT22;69705;44.686;37.628;2024-02-26T11:40:27;21.78;36.37
76857;DHT22;69705;44.686;37.628;2024-02-26T11:42:56;21.69;36.72
76857;DHT22;69705;44.686;37.628;2024-02-26T11:48:15;21.70;37.64
76857;DHT22;69705;44.686;37.628;2024-02-26T11:50:52;21.59;38.00
76857;DHT22;69705;44.686;37.628;2024-02-26T11:53:29;21.53;35.69
76857;DHT22;69705;44.686;37.628;2024-02-26T11:59:01;21.70;36.92
76857;DHT22;69705;44.686;37.628;2024-02-26T12:01:37;21.64;38.11
76857;DHT22;69705;44.686;37.628;2024-02-26T12:04:06;21.68;33.90
76857;DHT22;69705;44.686;37.628;2024-02-26T12:06:47;21.78;34.08
76857;DHT22;69705;44.686;37.628;2024-02-26T12:09:31;21.62;38.02
76857;DHT22;69705;44.686;37.628;2024-02-26T12:11:58;21.62;37.42
76857;DHT22;69705;44.686;37.628;2024-02-26T12:14:26;21.72;27.10
76857;DHT22;69705;44.686;37.628;2024-02-26T12:16:55;21.91;22.87
76857;DHT22;69705;44.686;37.628;2024-02-26T12:19:23;22.17;21.96
76857;DHT22;69705;44.686;37.628;2024-02-26T12:21:53;22.35;20.12
76857;DHT22;69705;44.686;37.628;2024-02-26T12:24:21;22.31;19.67
76857;DHT22;69705;44.686;37.628;2024-02-26T12:26:48;22.11;18.03
76857;DHT22;69705;44.686;37.628;2024-02-26T12:29:15;21.99;18.58
76857;DHT22;69705;44.686;37.628;2024-02-26T12:31:43;21.99;18.97
76857;DHT22;69705;44.686;37.628;2024-02-26T12:34:10;21.87;18.96
76857;DHT22;69705;44.686;37.628;2024-02-26T12:36:37;21.70;19.17
76857;DHT22;69705;44.686;37.628;2024-02-26T12:39:05;21.62;19.44
76857;DHT22;69705;44.686;37.628;2024-02-26T12:41:33;21.61;20.27
76857;DHT22;69705;44.686;37.628;2024-02-26T12:44:00;21.52;19.67
76857;DHT22;69705;44.686;37.628;2024-02-26T12:46:28;21.60;20.25
76857;DHT22;69705;44.686;37.628;2024-02-26T12:48:58;21.62;20.02
76857;DHT22;69705;44.686;37.628;2024-02-26T12:51:26;21.33;22.73
76857;DHT22;69705;44.686;37.628;2024-02-26T12:53:55;21.19;20.60
76857;DHT22;69705;44.686;37.628;2024-02-26T12:56:23;21.19;21.47
76857;DHT22;69705;44.686;37.628;2024-02-26T12:58:51;21.10;25.87
76857;DHT22;69705;44.686;37.628;2024-02-26T13:01:23;20.49;38.91
76857;DHT22;69705;44.686;37.628;2024-02-26T13:03:51;20.03;40.55
76857;DHT22;69705;44.686;37.628;2024-02-26T13:06:20;19.76;41.44
76857;DHT22;69705;44.686;37.628;2024-02-26T13:08:48;19.31;41.70
76857;DHT22;69705;44.686;37.628;2024-02-26T13:11:15;18.93;44.23
76857;DHT22;69705;44.686;37.628;2024-02-26T13:13:42;18.36;46.41
76857;DHT22;69705;44.686;37.628;2024-02-26T13:16:15;17.97;46.25
76857;DHT22;69705;44.686;37.628;2024-02-26T13:18:42;17.68;48.24
76857;DHT22;69705;44.686;37.628;2024-02-26T13:21:11;17.49;47.53
76857;DHT22;69705;44.686;37.628;2024-02-26T13:23:42;17.44;48.13
76857;DHT22;69705;44.686;37.628;2024-02-26T13:26:12;17.32;49.82
76857;DHT22;69705;44.686;37.628;2024-02-26T13:28:40;17.19;49.37
76857;DHT22;69705;44.686;37.628;2024-02-26T13:31:08;17.16;49.95
76857;DHT22;69705;44.686;37.628;2024-02-26T13:33:35;16.99;50.86
76857;DHT22;69705;44.686;37.628;2024-02-26T13:36:03;16.91;50.12
76857;DHT22;69705;44.686;37.628;2024-02-26T13:38:30;16.75;50.65
76857;DHT22;69705;44.686;37.628;2024-02-26T13:40:57;16.55;51.98
76857;DHT22;69705;44.686;37.628;2024-02-26T13:43:24;16.44;52.07
76857;DHT22;69705;44.686;37.628;2024-02-26T13:45:51;16.26;53.18
76857;DHT22;69705;44.686;37.628;2024-02-26T13:48:18;16.20;54.12
76857;DHT22;69705;44.686;37.628;2024-02-26T13:50:45;16.17;53.27
76857;DHT22;69705;44.686;37.628;2024-02-26T13:53:13;16.00;46.15
76857;DHT22;69705;44.686;37.628;2024-02-26T13:55:41;15.91;38.98
76857;DHT22;69705;44.686;37.628;2024-02-26T13:58:14;15.87;36.92
76857;DHT22;69705;44.686;37.628;2024-02-26T14:00:41;15.84;37.34
76857;DHT22;69705;44.686;37.628;2024-02-26T14:03:08;15.77;36.93
76857;DHT22;69705;44.686;37.628;2024-02-26T14:05:35;15.70;36.03
76857;DHT22;69705;44.686;37.628;2024-02-26T14:08:03;15.81;42.23
76857;DHT22;69705;44.686;37.628;2024-02-26T14:10:30;15.84;46.90
76857;DHT22;69705;44.686;37.628;2024-02-26T14:12:58;15.74;43.47
76857;DHT22;69705;44.686;37.628;2024-02-26T14:15:27;15.63;38.69
76857;DHT22;69705;44.686;37.628;2024-02-26T14:17:57;15.33;37.92
76857;DHT22;69705;44.686;37.628;2024-02-26T14:20:25;15.27;39.20
76857;DHT22;69705;44.686;37.628;2024-02-26T14:22:54;15.23;38.72
76857;DHT22;69705;44.686;37.628;2024-02-26T14:25:22;15.09;38.87
76857;DHT22;69705;44.686;37.628;2024-02-26T14:27:49;15.07;39.09
76857;DHT22;69705;44.686;37.628;2024-02-26T14:30:16;14.82;39.42
76857;DHT22;69705;44.686;37.628;2024-02-26T14:32:43;14.60;40.58
76857;DHT22;69705;44.686;37.628;2024-02-26T14:35:11;14.36;41.38
76857;DHT22;69705;44.686;37.628;2024-02-26T14:37:38;14.24;41.60
76857;DHT22;69705;44.686;37.628;2024-02-26T14:40:06;14.11;41.85
76857;DHT22;69705;44.686;37.628;2024-02-26T14:42:33;13.96;42.43
76857;DHT22;69705;44.686;37.628;2024-02-26T14:45:00;13.74;42.60
76857;DHT22;69705;44.686;37.628;2024-02-26T14:47:27;13.54;42.93
76857;DHT22;69705;44.686;37.628;2024-02-26T14:49:54;13.39;43.33
76857;DHT22;69705;44.686;37.628;2024-02-26T14:52:21;13.20;44.15
76857;DHT22;69705;44.686;37.628;2024-02-26T14:54:48;13.07;44.96
76857;DHT22;69705;44.686;37.628;2024-02-26T14:57:17;12.89;45.09
76857;DHT22;69705;44.686;37.628;2024-02-26T14:59:44;12.71;44.84
76857;DHT22;69705;44.686;37.628;2024-02-26T15:02:11;12.56;45.42
76857;DHT22;69705;44.686;37.628;2024-02-26T15:04:38;12.44;46.25
76857;DHT22;69705;44.686;37.628;2024-02-26T15:07:05;12.32;46.24
76857;DHT22;69705;44.686;37.628;2024-02-26T15:09:33;12.18;46.79
76857;DHT22;69705;44.686;37.628;2024-02-26T15:12:01;12.05;46.94
76857;DHT22;69705;44.686;37.628;2024-02-26T15:14:29;11.97;47.71
76857;DHT22;69705;44.686;37.628;2024-02-26T15:16:56;11.82;47.38
76857;DHT22;69705;44.686;37.628;2024-02-26T15:19:23;11.75;47.75
76857;DHT22;69705;44.686;37.628;2024-02-26T15:21:50;11.69;48.25
76857;DHT22;69705;44.686;37.628;2024-02-26T15:24:17;11.58;48.78
76857;DHT22;69705;44.686;37.628;2024-02-26T15:26:45;11.46;49.47
76857;DHT22;69705;44.686;37.628;2024-02-26T15:29:12;11.38;49.34
76857;DHT22;69705;44.686;37.628;2024-02-26T15:31:39;11.29;49.80